createdAt,value
2023-03-06T00:01:33.683Z,75.50
2023-03-06T00:04:02.079Z,75.49
2023-03-06T00:06:30.979Z,75.13
2023-03-06T00:08:59.760Z,76.63
2023-03-06T00:11:30.328Z,75.81
2023-03-06T00:13:58.807Z,75.76
2023-03-06T00:16:27.503Z,76.19
2023-03-06T00:18:56.205Z,76.56
2023-03-06T00:21:30.985Z,76.54
2023-03-06T00:23:59.769Z,76.57
2023-03-06T00:26:30.066Z,77.14
2023-03-06T00:28:59.229Z,77.25
2023-03-06T00:31:27.821Z,77.65
2023-03-06T00:33:56.311Z,78.71
2023-03-06T00:36:25.339Z,78.42
2023-03-06T00:38:53.783Z,78.80
2023-03-06T00:41:22.670Z,78.96
2023-03-06T00:43:52.484Z,78.78
2023-03-06T00:46:21.093Z,78.23
2023-03-06T00:48:49.689Z,78.41
2023-03-06T00:51:20.074Z,78.66
2023-03-06T00:53:48.715Z,78.88
2023-03-06T00:56:19.564Z,79.52
2023-03-06T00:58:48.299Z,78.54
2023-03-06T01:01:18.514Z,79.41
2023-03-06T01:03:47.284Z,79.56
2023-03-06T01:06:16.234Z,79.72
2023-03-06T01:08:44.896Z,80.19
2023-03-06T01:11:13.730Z,80.03
2023-03-06T01:13:42.616Z,80.17
2023-03-06T01:16:14.169Z,80.33
2023-03-06T01:18:44.584Z,80.40
2023-03-06T01:21:14.587Z,80.82
2023-03-06T01:23:43.795Z,80.84
2023-03-06T01:26:13.297Z,80.54
2023-03-06T01:28:42.486Z,81.21
2023-03-06T01:31:11.460Z,80.99
2023-03-06T01:33:40.324Z,80.82
2023-03-06T01:36:13.096Z,80.72
2023-03-06T01:38:41.645Z,80.42
2023-03-06T01:41:11.279Z,80.11
2023-03-06T01:43:42.586Z,80.75
2023-03-06T01:46:35.018Z,81.78
2023-03-06T01:49:07.448Z,80.89
2023-03-06T01:51:40.778Z,80.89
2023-03-06T01:54:11.355Z,80.69
2023-03-06T01:56:41.462Z,80.47
2023-03-06T01:59:10.056Z,80.94
2023-03-06T02:01:40.212Z,80.49
2023-03-06T02:04:09.456Z,80.74
2023-03-06T02:06:43.603Z,80.68
2023-03-06T02:09:14.087Z,80.85
2023-03-06T02:11:44.388Z,81.19
2023-03-06T02:14:14.304Z,81.21
2023-03-06T02:16:43.584Z,81.22
2023-03-06T02:19:22.680Z,81.51
2023-03-06T02:21:53.103Z,82.23
2023-03-06T02:24:29.777Z,81.88
2023-03-06T02:27:01.853Z,82.23
2023-03-06T02:29:31.829Z,82.17
2023-03-06T02:32:00.737Z,82.18
2023-03-06T02:34:59.429Z,81.45
2023-03-06T02:37:30.310Z,81.87
2023-03-06T02:40:03.370Z,82.26
2023-03-06T02:42:33.575Z,82.50
2023-03-06T02:45:03.839Z,82.90
2023-03-06T02:47:32.479Z,83.76
2023-03-06T02:50:01.060Z,83.87
2023-03-06T02:52:33.961Z,84.12
2023-03-06T02:55:02.742Z,83.85
2023-03-06T02:57:33.343Z,84.09
2023-03-06T03:00:01.857Z,83.94
2023-03-06T03:02:30.556Z,84.38
2023-03-06T03:04:59.541Z,84.57
2023-03-06T03:07:28.069Z,84.49
2023-03-06T03:09:56.956Z,84.85
2023-03-06T03:12:25.833Z,84.81
2023-03-06T03:14:56.209Z,85.09
2023-03-06T03:17:25.541Z,84.97
2023-03-06T03:19:54.707Z,85.32
2023-03-06T03:22:23.384Z,85.59
2023-03-06T03:24:52.068Z,86.29
2023-03-06T03:27:20.854Z,86.28
2023-03-06T03:29:49.351Z,86.27
2023-03-06T03:32:19.961Z,86.53
2023-03-06T03:34:48.401Z,86.39
2023-03-06T03:37:17.656Z,86.22
2023-03-06T03:39:46.521Z,86.73
2023-03-06T03:42:15.371Z,87.42
2023-03-06T03:44:43.973Z,87.59
2023-03-06T03:47:12.693Z,88.17
2023-03-06T03:49:42.875Z,88.37
2023-03-06T03:52:11.685Z,88.40
2023-03-06T03:54:40.575Z,88.27
2023-03-06T03:57:09.152Z,88.82
2023-03-06T03:59:37.649Z,89.35
2023-03-06T04:02:06.300Z,89.49
2023-03-06T04:04:35.379Z,89.58
2023-03-06T04:07:05.505Z,89.91
2023-03-06T04:09:34.236Z,89.49
2023-03-06T04:14:49.280Z,90.14
2023-03-06T04:17:17.874Z,90.47
2023-03-06T04:19:46.491Z,90.62
2023-03-06T04:22:16.717Z,90.70
2023-03-06T04:24:49.081Z,90.72
2023-03-06T04:27:17.887Z,90.89
2023-03-06T04:29:46.375Z,91.25
2023-03-06T04:32:16.296Z,91.10
2023-03-06T04:34:44.821Z,91.21
2023-03-06T04:37:22.139Z,91.21
2023-03-06T04:39:50.777Z,91.18
2023-03-06T04:42:21.746Z,91.50
2023-03-06T04:44:50.416Z,91.25
2023-03-06T04:47:19.323Z,91.10
2023-03-06T04:49:48.904Z,92.07
2023-03-06T04:52:17.480Z,93.31
2023-03-06T04:54:47.497Z,93.29
2023-03-06T04:57:16.390Z,93.89
2023-03-06T04:59:44.952Z,93.68
2023-03-06T05:02:13.995Z,94.26
2023-03-06T05:04:42.720Z,94.20
2023-03-06T05:07:11.787Z,93.83
2023-03-06T05:09:42.874Z,94.05
2023-03-06T05:12:12.853Z,94.74
2023-03-06T05:14:41.353Z,94.92
2023-03-06T05:17:10.344Z,95.17
2023-03-06T05:19:38.988Z,95.10
2023-03-06T05:22:14.871Z,94.78
2023-03-06T05:24:43.682Z,95.26
2023-03-06T05:27:16.538Z,95.25
2023-03-06T05:29:45.432Z,95.10
2023-03-06T05:32:14.575Z,94.44
2023-03-06T05:34:43.398Z,94.31
2023-03-06T05:37:12.235Z,94.09
2023-03-06T05:39:41.571Z,94.12
2023-03-06T05:42:10.321Z,94.42
2023-03-06T05:44:41.840Z,94.83
2023-03-06T05:47:12.119Z,94.72
2023-03-06T05:49:41.709Z,95.46
2023-03-06T05:52:11.085Z,95.00
2023-03-06T05:54:43.263Z,94.82
2023-03-06T05:57:11.746Z,94.46
2023-03-06T05:59:43.334Z,94.30
2023-03-06T06:02:12.032Z,94.33
2023-03-06T06:04:40.214Z,94.68
2023-03-06T06:07:12.895Z,94.78
2023-03-06T06:09:41.772Z,94.59
2023-03-06T06:12:11.782Z,94.35
2023-03-06T06:14:42.005Z,93.78
2023-03-06T06:17:13.152Z,93.63
2023-03-06T06:19:41.795Z,93.11
2023-03-06T06:22:10.852Z,93.31
2023-03-06T06:24:39.810Z,93.09
2023-03-06T06:27:08.824Z,93.23
2023-03-06T06:29:37.397Z,93.14
2023-03-06T06:32:08.411Z,92.56
2023-03-06T06:34:37.162Z,92.15
2023-03-06T06:37:05.845Z,91.49
2023-03-06T06:39:35.098Z,92.17
2023-03-06T06:42:27.994Z,92.16
2023-03-06T06:44:53.172Z,92.51
2023-03-06T06:47:25.105Z,92.84
2023-03-06T06:49:55.857Z,93.17
2023-03-06T06:52:24.848Z,93.01
2023-03-06T06:54:53.810Z,93.31
2023-03-06T06:57:22.817Z,92.70
2023-03-06T06:59:53.709Z,92.32
2023-03-06T07:02:24.275Z,92.87
2023-03-06T07:05:04.071Z,92.72
2023-03-06T07:07:33.452Z,92.67
2023-03-06T07:10:02.736Z,91.82
2023-03-06T07:12:35.277Z,91.43
2023-03-06T07:15:04.705Z,90.99
2023-03-06T07:17:34.666Z,90.57
2023-03-06T07:20:04.095Z,90.06
2023-03-06T07:22:44.800Z,89.11
2023-03-06T07:25:44.364Z,88.39
2023-03-06T07:28:18.551Z,87.91
2023-03-06T07:30:53.334Z,87.30
2023-03-06T07:33:24.064Z,86.17
2023-03-06T07:35:53.248Z,86.81
2023-03-06T07:38:22.306Z,86.37
2023-03-06T07:40:54.427Z,85.48
2023-03-06T07:43:24.789Z,84.22
2023-03-06T07:45:59.500Z,84.74
2023-03-06T07:48:30.138Z,83.84
2023-03-06T07:51:01.881Z,82.75
2023-03-06T07:53:30.904Z,82.95
2023-03-06T07:56:00.783Z,82.15
2023-03-06T07:58:30.904Z,81.55
2023-03-06T08:00:59.940Z,81.50
2023-03-06T08:03:30.820Z,79.33
2023-03-06T08:06:07.564Z,78.64
2023-03-06T08:08:44.771Z,77.25
2023-03-06T08:11:18.013Z,76.21
2023-03-06T08:13:48.971Z,73.50
2023-03-06T08:16:29.248Z,72.81
2023-03-06T08:19:00.012Z,72.11
2023-03-06T08:21:29.634Z,71.12
2023-03-06T08:23:58.352Z,70.68
2023-03-06T08:26:31.724Z,68.86
2023-03-06T08:29:02.677Z,68.74
2023-03-06T08:31:33.529Z,69.17
2023-03-06T08:34:04.824Z,68.83
2023-03-06T08:36:38.282Z,67.76
2023-03-06T08:39:07.241Z,66.95
2023-03-06T08:41:36.228Z,66.22
2023-03-06T08:44:05.857Z,65.60
2023-03-06T08:46:35.404Z,64.61
2023-03-06T08:49:06.401Z,62.92
2023-03-06T08:51:35.110Z,62.57
2023-03-06T08:54:03.837Z,61.94
2023-03-06T08:56:34.144Z,62.99
2023-03-06T08:59:05.073Z,62.47
2023-03-06T09:01:35.354Z,61.46
2023-03-06T09:04:07.310Z,58.92
2023-03-06T09:06:38.177Z,58.14
2023-03-06T09:09:08.187Z,59.09
2023-03-06T09:11:37.245Z,58.80
2023-03-06T09:14:07.324Z,58.63
2023-03-06T09:16:36.149Z,57.50
2023-03-06T09:19:06.118Z,54.28
2023-03-06T09:21:37.244Z,54.23
2023-03-06T09:24:06.796Z,52.88
2023-03-06T09:26:45.393Z,51.82
2023-03-06T09:29:16.515Z,51.33
2023-03-06T09:31:45.480Z,51.49
2023-03-06T09:34:15.551Z,51.29
2023-03-06T09:36:56.036Z,52.67
2023-03-06T09:39:27.490Z,51.28
2023-03-06T09:41:57.652Z,50.82
2023-03-06T09:44:27.989Z,51.63
2023-03-06T09:47:12.410Z,50.38
2023-03-06T09:49:50.442Z,49.62
2023-03-06T09:52:31.209Z,49.61
2023-03-06T09:55:02.834Z,49.13
2023-03-06T09:57:35.347Z,49.77
2023-03-06T10:00:08.316Z,48.39
2023-03-06T10:02:43.217Z,48.34
2023-03-06T10:05:17.371Z,48.44
2023-03-06T10:07:48.829Z,47.65
2023-03-06T10:10:21.738Z,48.27
2023-03-06T10:12:57.986Z,47.95
2023-03-06T10:15:34.049Z,46.84
2023-03-06T10:18:05.551Z,46.65
2023-03-06T10:20:45.186Z,46.55
2023-03-06T10:23:30.352Z,48.40
2023-03-06T10:26:02.136Z,47.71
2023-03-06T10:28:36.104Z,46.94
2023-03-06T10:31:12.415Z,47.93
2023-03-06T10:33:49.266Z,47.54
2023-03-06T10:36:21.612Z,47.08
2023-03-06T10:38:53.414Z,45.88
2023-03-06T10:41:26.098Z,48.05
2023-03-06T10:44:20.409Z,47.20
2023-03-06T10:46:52.637Z,45.94
2023-03-06T10:49:27.776Z,47.42
2023-03-06T10:52:23.017Z,44.68
2023-03-06T10:54:51.673Z,45.19
2023-03-06T10:57:25.220Z,44.23
2023-03-06T10:59:55.188Z,42.86
2023-03-06T11:02:28.589Z,42.84
2023-03-06T11:04:58.716Z,41.56
2023-03-06T11:07:29.738Z,39.22
2023-03-06T11:10:04.537Z,35.13
2023-03-06T11:12:34.435Z,36.42
2023-03-06T11:15:28.049Z,33.74
2023-03-06T11:18:01.432Z,31.61
2023-03-06T11:20:48.665Z,31.91
2023-03-06T11:23:25.754Z,36.39
2023-03-06T11:25:59.185Z,37.66
2023-03-06T11:28:30.423Z,39.61
2023-03-06T11:31:03.307Z,39.54
2023-03-06T11:33:39.453Z,39.09
2023-03-06T11:36:17.201Z,40.69
2023-03-06T11:38:50.672Z,40.64
2023-03-06T11:41:29.549Z,41.69
2023-03-06T11:44:10.188Z,42.29
2023-03-06T11:46:41.172Z,43.04
2023-03-06T11:49:17.471Z,44.97
2023-03-06T11:51:51.404Z,45.77
2023-03-06T11:54:21.898Z,45.55
2023-03-06T11:56:54.965Z,45.93
2023-03-06T11:59:36.067Z,46.67
2023-03-06T12:02:08.960Z,47.04
2023-03-06T12:04:43.540Z,49.39
2023-03-06T12:07:29.876Z,48.59
2023-03-06T12:10:07.637Z,48.73
2023-03-06T12:12:58.896Z,50.26
2023-03-06T12:15:41.624Z,50.32
2023-03-06T12:18:23.081Z,51.68
2023-03-06T12:21:02.422Z,51.23
2023-03-06T12:23:45.899Z,52.02
2023-03-06T12:26:31.273Z,50.73
2023-03-06T12:29:10.818Z,49.77
2023-03-06T12:31:54.489Z,51.09
2023-03-06T12:34:31.308Z,48.27
2023-03-06T12:37:06.124Z,46.33
2023-03-06T12:39:49.183Z,46.92
2023-03-06T12:42:42.897Z,48.78
2023-03-06T12:45:35.005Z,50.42
2023-03-06T12:48:04.776Z,50.25
2023-03-06T12:50:37.194Z,50.75
2023-03-06T12:53:10.648Z,51.05
2023-03-06T12:55:42.742Z,50.76
2023-03-06T12:58:42.953Z,50.77
2023-03-06T13:01:20.245Z,50.82
2023-03-06T13:03:59.373Z,50.06
2023-03-06T13:06:39.248Z,52.13
2023-03-06T13:09:19.326Z,52.06
2023-03-06T13:12:10.244Z,52.28
2023-03-06T13:14:55.293Z,53.02
2023-03-06T13:17:37.777Z,51.73
2023-03-06T13:20:29.149Z,53.78
2023-03-06T13:23:00.758Z,51.67
2023-03-06T13:25:39.693Z,53.83
2023-03-06T13:28:24.786Z,53.97
2023-03-06T13:30:56.166Z,54.92
2023-03-06T13:33:58.299Z,55.42
2023-03-06T13:36:32.495Z,55.46
2023-03-06T13:39:08.946Z,56.24
2023-03-06T13:41:56.312Z,55.76
2023-03-06T13:44:51.163Z,55.04
2023-03-06T13:47:59.070Z,56.49
2023-03-06T13:50:40.518Z,57.59
2023-03-06T13:53:31.777Z,57.23
2023-03-06T13:56:11.095Z,54.11
2023-03-06T13:58:56.332Z,55.03
2023-03-06T14:01:29.686Z,55.27
2023-03-06T14:04:35.344Z,54.96
2023-03-06T14:07:12.403Z,55.71
2023-03-06T14:09:44.735Z,55.91
2023-03-06T14:12:19.253Z,55.36
2023-03-06T14:14:50.925Z,55.67
2023-03-06T14:17:25.143Z,53.93
2023-03-06T14:19:59.075Z,54.99
2023-03-06T14:22:27.827Z,55.52
2023-03-06T14:24:59.975Z,55.37
2023-03-06T14:27:44.280Z,55.67
2023-03-06T14:30:15.263Z,55.31
2023-03-06T14:32:47.597Z,55.49
2023-03-06T14:35:29.610Z,54.58
2023-03-06T14:38:03.347Z,53.79
2023-03-06T14:40:37.825Z,54.01
2023-03-06T14:43:23.708Z,55.50
2023-03-06T14:45:55.148Z,55.37
2023-03-06T14:48:24.367Z,55.38
2023-03-06T14:50:57.883Z,55.95
2023-03-06T14:53:29.075Z,57.33
2023-03-06T14:56:04.395Z,57.77
2023-03-06T14:58:35.419Z,57.61
2023-03-06T15:01:09.116Z,58.33
2023-03-06T15:03:44.313Z,58.61
2023-03-06T15:06:19.889Z,57.80
2023-03-06T15:08:50.409Z,58.43
2023-03-06T15:11:19.285Z,58.89
2023-03-06T15:14:02.446Z,58.48
2023-03-06T15:16:45.595Z,58.84
2023-03-06T15:19:20.582Z,59.78
2023-03-06T15:21:52.197Z,60.56
2023-03-06T15:24:35.486Z,60.50
2023-03-06T15:27:06.164Z,61.08
2023-03-06T15:29:35.446Z,61.30
2023-03-06T15:32:31.299Z,61.92
2023-03-06T15:35:29.106Z,62.05
2023-03-06T15:37:59.928Z,62.44
2023-03-06T15:40:32.016Z,62.77
2023-03-06T15:43:00.916Z,63.10
2023-03-06T15:45:32.299Z,63.48
2023-03-06T15:50:31.776Z,64.60
2023-03-06T15:53:05.945Z,64.83
2023-03-06T15:55:34.901Z,65.25
2023-03-06T15:58:04.856Z,65.84
2023-03-06T16:00:35.980Z,66.22
2023-03-06T16:03:04.920Z,66.82
2023-03-06T16:05:36.574Z,66.80
2023-03-06T16:08:07.001Z,67.43
2023-03-06T16:10:39.376Z,67.71
2023-03-06T16:13:11.699Z,67.79
2023-03-06T16:15:44.234Z,68.67
2023-03-06T16:18:14.540Z,69.27
2023-03-06T16:20:44.051Z,69.07
2023-03-06T16:23:15.624Z,69.43
2023-03-06T16:25:48.102Z,69.41
2023-03-06T16:28:17.819Z,69.87
2023-03-06T16:30:47.255Z,70.24
2023-03-06T16:33:17.879Z,70.79
2023-03-06T16:35:47.433Z,71.80
2023-03-06T16:38:18.035Z,71.61
2023-03-06T16:40:48.503Z,72.49
2023-03-06T16:43:42.911Z,72.52
2023-03-06T16:46:16.653Z,72.68
2023-03-06T16:48:45.718Z,72.92
2023-03-06T16:51:16.154Z,73.11
2023-03-06T16:53:48.980Z,73.37
2023-03-06T16:56:22.445Z,73.21
2023-03-06T16:58:52.448Z,74.51
2023-03-06T17:01:21.903Z,74.93
2023-03-06T17:03:51.345Z,74.71
2023-03-06T17:06:21.866Z,74.52
2023-03-06T17:08:52.635Z,74.37
2023-03-06T17:11:21.638Z,73.94
2023-03-06T17:13:50.353Z,74.25
2023-03-06T17:16:19.031Z,74.85
2023-03-06T17:18:49.721Z,75.02
2023-03-06T17:21:18.538Z,75.31
2023-03-06T17:23:48.434Z,74.52
2023-03-06T17:26:39.077Z,74.60
2023-03-06T17:29:07.885Z,75.05
2023-03-06T17:31:36.684Z,75.73
2023-03-06T17:34:08.184Z,75.95
2023-03-06T17:36:37.170Z,75.59
2023-03-06T17:39:08.773Z,75.98
2023-03-06T17:41:39.111Z,75.58
2023-03-06T17:44:08.210Z,76.36
2023-03-06T17:46:37.709Z,76.84
2023-03-06T17:49:06.485Z,77.38
2023-03-06T17:51:35.078Z,76.57
2023-03-06T17:54:06.879Z,75.88
2023-03-06T17:56:35.470Z,75.66
2023-03-06T17:59:05.624Z,76.54
2023-03-06T18:01:34.460Z,75.86
2023-03-06T18:04:04.594Z,76.75
2023-03-06T18:06:37.167Z,75.98
2023-03-06T18:09:07.280Z,75.54
2023-03-06T18:11:37.449Z,76.22
2023-03-06T18:14:07.478Z,74.79
2023-03-06T18:16:37.265Z,73.43
2023-03-06T18:19:08.132Z,73.64
2023-03-06T18:21:37.222Z,74.32
2023-03-06T18:24:05.912Z,74.12
2023-03-06T18:26:34.932Z,73.62
2023-03-06T18:29:05.093Z,72.88
2023-03-06T18:31:36.975Z,73.80
2023-03-06T18:34:07.672Z,74.23
2023-03-06T18:36:37.245Z,74.18
2023-03-06T18:39:08.934Z,74.00
2023-03-06T18:41:41.567Z,74.94
2023-03-06T18:44:10.110Z,73.97
2023-03-06T18:46:40.563Z,72.80
2023-03-06T18:49:09.106Z,72.72
2023-03-06T18:51:37.904Z,73.37
2023-03-06T18:54:07.796Z,72.91
2023-03-06T18:56:36.521Z,73.04
2023-03-06T18:59:06.809Z,72.86
2023-03-06T19:01:35.703Z,72.99
2023-03-06T19:04:08.218Z,73.21
2023-03-06T19:06:40.006Z,72.78
2023-03-06T19:09:11.950Z,73.84
2023-03-06T19:11:45.837Z,73.15
2023-03-06T19:14:15.916Z,74.29
2023-03-06T19:16:44.945Z,74.38
2023-03-06T19:19:15.073Z,75.09
2023-03-06T19:21:43.884Z,75.52
2023-03-06T19:24:14.357Z,74.88
2023-03-06T19:26:43.479Z,74.86
2023-03-06T19:29:12.534Z,74.91
2023-03-06T19:31:42.469Z,74.91
2023-03-06T19:34:11.795Z,74.82
2023-03-06T19:36:43.282Z,75.13
2023-03-06T19:39:16.016Z,75.54
2023-03-06T19:41:44.526Z,77.18
2023-03-06T19:44:14.954Z,77.46
2023-03-06T19:46:47.586Z,77.73
2023-03-06T19:49:22.458Z,78.52
2023-03-06T19:51:52.353Z,77.92
2023-03-06T19:54:24.791Z,77.96
2023-03-06T19:56:56.290Z,77.55
2023-03-06T19:59:25.186Z,78.05
2023-03-06T20:01:53.645Z,77.96
2023-03-06T20:04:24.148Z,78.72
2023-03-06T20:06:54.276Z,78.69
2023-03-06T20:09:23.416Z,78.57
2023-03-06T20:11:54.960Z,78.41
2023-03-06T20:14:23.742Z,78.28
2023-03-06T20:16:53.243Z,79.01
2023-03-06T20:19:23.039Z,79.61
2023-03-06T20:21:51.824Z,79.33
2023-03-06T20:24:22.314Z,79.58
2023-03-06T20:26:52.837Z,79.34
2023-03-06T20:29:21.964Z,79.77
2023-03-06T20:31:50.606Z,80.02
2023-03-06T20:34:19.482Z,79.63
2023-03-06T20:36:48.007Z,80.11
2023-03-06T20:39:21.807Z,79.84
2023-03-06T20:41:52.297Z,79.49
2023-03-06T20:44:21.210Z,79.96
2023-03-06T20:46:53.313Z,80.88
2023-03-06T20:49:22.659Z,80.97
2023-03-06T20:51:51.399Z,81.12
2023-03-06T20:54:20.362Z,82.60
2023-03-06T20:56:52.116Z,82.65
2023-03-06T20:59:20.905Z,82.99
2023-03-06T21:01:49.831Z,83.39
2023-03-06T21:04:18.569Z,83.72
2023-03-06T21:06:49.681Z,83.26
2023-03-06T21:09:19.154Z,85.02
2023-03-06T21:11:48.136Z,84.92
2023-03-06T21:14:18.687Z,84.22
2023-03-06T21:16:47.859Z,85.29
2023-03-06T21:19:16.968Z,85.05
2023-03-06T21:21:45.627Z,85.25
2023-03-06T21:24:21.232Z,84.93
2023-03-06T21:26:51.468Z,85.27
2023-03-06T21:29:21.799Z,86.91
2023-03-06T21:31:53.589Z,86.85
2023-03-06T21:34:22.398Z,88.06
2023-03-06T21:36:51.369Z,88.18
2023-03-06T21:39:20.218Z,88.82
2023-03-06T21:41:49.103Z,88.33
2023-03-06T21:44:17.566Z,88.00
2023-03-06T21:46:47.776Z,85.69
2023-03-06T21:49:16.725Z,85.83
2023-03-06T21:51:48.103Z,85.73
2023-03-06T21:54:16.666Z,86.06
2023-03-06T21:56:46.249Z,85.87
2023-03-06T21:59:16.460Z,85.74
2023-03-06T22:01:44.877Z,85.65
2023-03-06T22:04:20.715Z,83.83
2023-03-06T22:06:49.768Z,84.35
2023-03-06T22:09:20.171Z,84.99
2023-03-06T22:11:49.435Z,84.57
2023-03-06T22:14:19.103Z,85.39
2023-03-06T22:16:47.736Z,85.19
2023-03-06T22:19:17.438Z,85.57
2023-03-06T22:21:46.084Z,84.82
2023-03-06T22:24:14.752Z,84.80
2023-03-06T22:26:43.642Z,83.30
2023-03-06T22:29:12.340Z,83.73
2023-03-06T22:31:40.840Z,85.49
2023-03-06T22:34:09.268Z,85.77
2023-03-06T22:36:41.581Z,86.84
2023-03-06T22:39:14.413Z,86.88
2023-03-06T22:41:43.054Z,87.70
2023-03-06T22:44:16.881Z,87.50
2023-03-06T22:46:45.901Z,87.63
2023-03-06T22:49:17.075Z,86.95
2023-03-06T22:51:47.186Z,87.52
2023-03-06T22:54:18.538Z,86.89
2023-03-06T22:56:47.638Z,87.44
2023-03-06T22:59:16.578Z,87.34
2023-03-06T23:01:45.538Z,87.74
2023-03-06T23:04:14.566Z,87.65
2023-03-06T23:06:44.878Z,88.17
2023-03-06T23:09:17.592Z,89.01
2023-03-06T23:11:46.522Z,89.60
2023-03-06T23:14:15.888Z,89.35
2023-03-06T23:16:44.977Z,89.85
2023-03-06T23:19:13.955Z,90.56
2023-03-06T23:21:42.518Z,90.29
2023-03-06T23:24:17.189Z,90.52
2023-03-06T23:26:45.983Z,90.46
2023-03-06T23:29:14.676Z,91.50
2023-03-06T23:31:46.051Z,91.88
2023-03-06T23:34:14.628Z,92.08
2023-03-06T23:36:43.304Z,92.67
2023-03-06T23:39:14.982Z,92.67
2023-03-06T23:41:45.867Z,92.77
2023-03-06T23:44:14.696Z,93.36
2023-03-06T23:46:46.040Z,93.45
2023-03-06T23:49:14.771Z,93.28
2023-03-06T23:51:45.964Z,93.91
2023-03-06T23:54:16.126Z,94.51
2023-03-06T23:56:44.820Z,94.98
2023-03-06T23:59:13.402Z,94.76
